createdAt,value
2017-12-24T00:01:53.301Z,6.97
2017-12-24T00:04:23.582Z,7.02
2017-12-24T00:06:54.953Z,7.13
2017-12-24T00:09:24.210Z,7.09
2017-12-24T00:11:52.716Z,7.09
2017-12-24T00:14:22.363Z,7.08
2017-12-24T00:16:50.895Z,7.01
2017-12-24T00:19:20.196Z,6.99
2017-12-24T00:21:49.525Z,6.99
2017-12-24T00:24:18.049Z,7.06
2017-12-24T00:26:46.972Z,7.08
2017-12-24T00:29:17.301Z,7.02
2017-12-24T00:31:46.805Z,7.04
2017-12-24T00:34:15.869Z,7.04
2017-12-24T00:36:44.386Z,7.17
2017-12-24T00:39:13.839Z,7.05
2017-12-24T00:41:44.543Z,7.03
2017-12-24T00:44:14.043Z,6.98
2017-12-24T00:46:44.315Z,6.90
2017-12-24T00:49:12.797Z,6.85
2017-12-24T00:51:41.336Z,6.94
2017-12-24T00:54:09.872Z,6.95
2017-12-24T00:56:38.265Z,6.91
2017-12-24T00:59:08.422Z,6.85
2017-12-24T01:01:37.856Z,6.89
2017-12-24T01:04:08.279Z,6.85
2017-12-24T01:06:40.087Z,6.85
2017-12-24T01:09:12.992Z,6.85
2017-12-24T01:11:43.261Z,6.86
2017-12-24T01:14:13.499Z,6.82
2017-12-24T01:16:42.015Z,6.72
2017-12-24T01:19:10.801Z,6.65
2017-12-24T01:21:39.732Z,6.81
2017-12-24T01:24:08.832Z,6.70
2017-12-24T01:26:38.392Z,6.63
2017-12-24T01:29:06.692Z,6.75
2017-12-24T01:31:36.930Z,6.61
2017-12-24T01:34:08.765Z,6.55
2017-12-24T01:36:39.090Z,6.48
2017-12-24T01:39:08.809Z,6.60
2017-12-24T01:41:38.243Z,6.60
2017-12-24T01:44:06.704Z,6.73
2017-12-24T01:46:37.145Z,6.68
2017-12-24T01:49:07.271Z,6.67
2017-12-24T01:51:36.829Z,6.77
2017-12-24T01:54:06.180Z,6.77
2017-12-24T01:56:35.476Z,6.77
2017-12-24T01:59:04.885Z,6.76
2017-12-24T02:01:34.193Z,6.89
2017-12-24T02:04:04.630Z,6.87
2017-12-24T02:06:33.146Z,6.92
2017-12-24T02:09:02.560Z,6.89
2017-12-24T02:11:31.192Z,6.76
2017-12-24T02:14:00.711Z,6.83
2017-12-24T02:16:30.806Z,6.75
2017-12-24T02:18:59.300Z,6.73
2017-12-24T02:21:30.297Z,6.79
2017-12-24T02:23:58.781Z,6.72
2017-12-24T02:26:30.891Z,6.61
2017-12-24T02:29:00.369Z,6.69
2017-12-24T02:31:29.042Z,6.66
2017-12-24T02:33:57.634Z,6.69
2017-12-24T02:36:26.170Z,6.66
2017-12-24T02:38:56.483Z,6.78
2017-12-24T02:41:25.758Z,6.72
2017-12-24T02:43:58.014Z,6.64
2017-12-24T02:46:27.237Z,6.60
2017-12-24T02:48:56.825Z,6.63
2017-12-24T02:51:26.565Z,6.63
2017-12-24T02:53:55.140Z,6.65
2017-12-24T02:56:24.343Z,6.67
2017-12-24T02:58:54.818Z,6.72
2017-12-24T03:01:26.945Z,6.82
2017-12-24T03:03:56.470Z,6.90
2017-12-24T03:06:27.769Z,6.78
2017-12-24T03:08:57.310Z,6.58
2017-12-24T03:11:26.188Z,6.64
2017-12-24T03:13:57.776Z,6.59
2017-12-24T03:16:27.401Z,6.53
2017-12-24T03:18:55.860Z,6.69
2017-12-24T03:21:24.365Z,6.70
2017-12-24T03:23:53.718Z,6.73
2017-12-24T03:26:23.113Z,6.65
2017-12-24T03:28:51.557Z,6.70
2017-12-24T03:31:21.052Z,6.71
2017-12-24T03:33:50.554Z,6.85
2017-12-24T03:36:20.946Z,6.90
2017-12-24T03:38:50.414Z,6.63
2017-12-24T03:41:18.821Z,6.57
2017-12-24T03:43:47.424Z,6.58
2017-12-24T03:46:18.012Z,6.64
2017-12-24T03:48:47.573Z,6.51
2017-12-24T03:51:16.172Z,6.64
2017-12-24T03:53:45.796Z,6.61
2017-12-24T03:56:14.170Z,6.58
2017-12-24T03:58:42.862Z,6.60
2017-12-24T04:01:11.185Z,6.61
2017-12-24T04:03:39.550Z,6.61
2017-12-24T04:06:07.950Z,6.61
2017-12-24T04:08:36.290Z,6.63
2017-12-24T04:11:04.635Z,6.65
2017-12-24T04:13:33.049Z,6.56
2017-12-24T04:16:01.471Z,6.60
2017-12-24T04:18:29.866Z,6.52
2017-12-24T04:20:58.265Z,6.53
2017-12-24T04:23:26.634Z,6.55
2017-12-24T04:25:54.988Z,6.62
2017-12-24T04:28:23.792Z,6.63
2017-12-24T04:30:52.264Z,6.48
2017-12-24T04:33:21.027Z,6.48
2017-12-24T04:35:50.254Z,6.43
2017-12-24T04:38:19.389Z,6.40
2017-12-24T04:40:47.767Z,6.32
2017-12-24T04:43:16.161Z,6.31
2017-12-24T04:45:45.341Z,6.30
2017-12-24T04:48:13.686Z,6.41
2017-12-24T04:50:42.090Z,6.37
2017-12-24T04:53:10.446Z,6.30
2017-12-24T04:55:39.553Z,6.38
2017-12-24T04:58:07.954Z,6.45
2017-12-24T05:00:36.309Z,6.39
2017-12-24T05:03:04.671Z,6.26
2017-12-24T05:05:33.120Z,6.35
2017-12-24T05:08:02.306Z,6.45
2017-12-24T05:10:30.661Z,6.46
2017-12-24T05:12:59.094Z,6.47
2017-12-24T05:15:27.460Z,6.39
2017-12-24T05:17:55.797Z,6.45
2017-12-24T05:20:24.986Z,6.45
2017-12-24T05:22:53.401Z,6.52
2017-12-24T05:25:22.513Z,6.57
2017-12-24T05:27:51.775Z,6.48
2017-12-24T05:30:20.226Z,6.48
2017-12-24T05:32:48.635Z,6.46
2017-12-24T05:35:17.065Z,6.52
2017-12-24T05:37:45.434Z,6.52
2017-12-24T05:40:13.813Z,6.56
2017-12-24T05:42:43.128Z,6.56
2017-12-24T05:45:11.486Z,6.44
2017-12-24T05:47:40.601Z,6.43
2017-12-24T05:50:09.783Z,6.41
2017-12-24T05:52:38.168Z,6.36
2017-12-24T05:55:06.493Z,6.37
2017-12-24T05:57:35.672Z,6.20
2017-12-24T06:00:04.054Z,6.24
2017-12-24T06:02:32.398Z,6.34
2017-12-24T06:05:00.813Z,6.29
2017-12-24T06:07:29.171Z,6.22
2017-12-24T06:09:58.413Z,6.24
2017-12-24T06:12:26.809Z,6.18
2017-12-24T06:14:55.149Z,6.10
2017-12-24T06:17:23.533Z,6.20
2017-12-24T06:19:51.934Z,6.18
2017-12-24T06:22:21.099Z,6.20
2017-12-24T06:24:49.452Z,6.07
2017-12-24T06:27:19.007Z,6.07
2017-12-24T06:29:47.386Z,6.14
2017-12-24T06:32:15.736Z,6.11
2017-12-24T06:34:44.141Z,6.06
2017-12-24T06:37:18.631Z,5.98
2017-12-24T06:39:47.133Z,6.05
2017-12-24T06:42:15.510Z,6.08
2017-12-24T06:44:44.255Z,6.13
2017-12-24T06:47:12.961Z,6.08
2017-12-24T06:49:41.612Z,5.99
2017-12-24T06:52:10.034Z,6.04
2017-12-24T06:54:38.500Z,6.08
2017-12-24T06:57:07.157Z,6.13
2017-12-24T06:59:35.938Z,6.15
2017-12-24T07:02:05.136Z,6.11
2017-12-24T07:04:33.504Z,5.93
2017-12-24T07:07:01.894Z,6.05
2017-12-24T07:09:30.310Z,6.13
2017-12-24T07:11:59.275Z,6.18
2017-12-24T07:14:28.111Z,6.18
2017-12-24T07:16:56.573Z,6.04
2017-12-24T07:19:25.019Z,5.99
2017-12-24T07:21:54.702Z,6.19
2017-12-24T07:24:23.490Z,6.08
2017-12-24T07:26:51.849Z,6.15
2017-12-24T07:29:20.255Z,6.21
2017-12-24T07:31:49.473Z,6.16
2017-12-24T07:34:18.623Z,6.14
2017-12-24T07:36:47.465Z,6.13
2017-12-24T07:39:16.090Z,6.17
2017-12-24T07:41:44.550Z,6.25
2017-12-24T07:44:12.887Z,6.31
2017-12-24T07:46:42.680Z,6.40
2017-12-24T07:49:11.522Z,6.48
2017-12-24T07:51:40.372Z,6.43
2017-12-24T07:54:09.678Z,6.46
2017-12-24T07:56:38.088Z,6.60
2017-12-24T07:59:06.488Z,6.60
2017-12-24T08:01:35.779Z,6.68
2017-12-24T08:04:05.504Z,6.73
2017-12-24T08:06:34.203Z,6.75
2017-12-24T08:09:04.131Z,6.91
2017-12-24T08:11:32.940Z,7.03
2017-12-24T08:14:01.401Z,6.93
2017-12-24T08:16:29.991Z,6.91
2017-12-24T08:18:58.660Z,6.84
2017-12-24T08:21:27.213Z,6.89
2017-12-24T08:23:56.890Z,6.83
2017-12-24T08:26:25.915Z,7.02
2017-12-24T08:28:54.362Z,7.10
2017-12-24T08:31:23.098Z,7.05
2017-12-24T08:33:52.087Z,6.95
2017-12-24T08:36:20.955Z,6.97
2017-12-24T08:38:49.764Z,6.86
2017-12-24T08:41:18.184Z,6.90
2017-12-24T08:43:46.541Z,6.94
2017-12-24T08:46:15.445Z,6.97
2017-12-24T08:48:43.862Z,7.09
2017-12-24T08:51:12.282Z,7.18
2017-12-24T08:53:40.732Z,7.24
2017-12-24T08:56:09.146Z,7.05
2017-12-24T08:58:37.498Z,7.06
2017-12-24T09:01:05.918Z,6.87
2017-12-24T09:03:35.059Z,6.86
2017-12-24T09:06:06.794Z,7.09
2017-12-24T09:08:35.393Z,6.96
2017-12-24T09:11:03.825Z,6.73
2017-12-24T09:13:32.451Z,6.90
2017-12-24T09:16:06.006Z,7.00
2017-12-24T09:18:35.179Z,7.08
2017-12-24T09:21:03.929Z,7.21
2017-12-24T09:23:33.031Z,7.20
2017-12-24T09:26:01.856Z,6.99
2017-12-24T09:28:30.281Z,6.98
2017-12-24T09:31:00.709Z,7.18
2017-12-24T09:33:29.090Z,6.94
2017-12-24T09:35:57.603Z,6.95
2017-12-24T09:38:25.993Z,7.32
2017-12-24T09:40:54.582Z,7.24
2017-12-24T09:43:23.115Z,7.19
2017-12-24T09:45:51.616Z,7.07
2017-12-24T09:48:22.375Z,7.09
2017-12-24T09:50:50.822Z,7.02
2017-12-24T09:53:19.913Z,7.09
2017-12-24T09:55:48.946Z,7.02
2017-12-24T09:58:17.991Z,7.27
2017-12-24T10:00:46.454Z,7.42
2017-12-24T10:03:14.993Z,6.87
2017-12-24T10:05:43.416Z,7.00
2017-12-24T10:08:12.675Z,7.26
2017-12-24T10:10:41.920Z,7.49
2017-12-24T10:13:10.378Z,7.88
2017-12-24T10:15:39.519Z,8.00
2017-12-24T10:18:08.256Z,7.24
2017-12-24T10:20:36.806Z,7.33
2017-12-24T10:23:05.174Z,7.72
2017-12-24T10:25:33.547Z,7.67
2017-12-24T10:28:02.928Z,7.60
2017-12-24T10:30:31.330Z,7.50
2017-12-24T10:32:59.697Z,7.64
2017-12-24T10:35:28.109Z,7.26
2017-12-24T10:37:56.900Z,7.48
2017-12-24T10:40:25.257Z,7.44
2017-12-24T10:48:09.597Z,7.18
2017-12-24T10:50:37.972Z,7.50
2017-12-24T10:53:07.144Z,7.24
2017-12-24T10:55:50.571Z,7.48
2017-12-24T10:58:19.006Z,7.82
2017-12-24T11:00:47.423Z,7.53
2017-12-24T11:03:16.605Z,7.91
2017-12-24T11:05:50.612Z,8.03
2017-12-24T11:08:18.986Z,8.28
2017-12-24T11:10:47.339Z,8.50
2017-12-24T11:13:22.850Z,8.44
2017-12-24T11:15:51.318Z,8.50
2017-12-24T11:18:20.711Z,8.76
2017-12-24T11:20:49.274Z,8.43
2017-12-24T11:23:17.789Z,8.55
2017-12-24T11:25:46.204Z,8.05
2017-12-24T11:28:15.338Z,8.36
2017-12-24T11:30:43.757Z,8.46
2017-12-24T11:33:15.337Z,8.45
2017-12-24T11:35:51.050Z,8.31
2017-12-24T11:38:19.431Z,8.38
2017-12-24T11:40:47.901Z,8.41
2017-12-24T11:43:16.351Z,8.49
2017-12-24T11:45:44.710Z,8.22
2017-12-24T11:48:13.810Z,8.37
2017-12-24T11:50:42.997Z,8.37
2017-12-24T11:53:11.344Z,8.35
2017-12-24T11:55:39.746Z,8.37
2017-12-24T11:58:08.173Z,8.28
2017-12-24T12:00:36.530Z,8.13
2017-12-24T12:03:04.869Z,8.18
2017-12-24T12:05:33.249Z,8.03
2017-12-24T12:08:01.633Z,7.68
2017-12-24T12:10:29.991Z,7.80
2017-12-24T12:12:58.409Z,7.87
2017-12-24T12:15:26.857Z,7.80
2017-12-24T12:17:55.263Z,7.68
2017-12-24T12:20:24.232Z,7.79
2017-12-24T12:22:52.620Z,7.60
2017-12-24T12:25:21.692Z,7.74
2017-12-24T12:27:50.642Z,7.83
2017-12-24T12:30:18.943Z,7.91
2017-12-24T12:32:47.357Z,8.07
2017-12-24T12:35:15.685Z,8.09
2017-12-24T12:37:44.183Z,8.00
2017-12-24T12:40:13.001Z,7.96
2017-12-24T12:42:43.239Z,7.87
2017-12-24T12:45:13.473Z,7.83
2017-12-24T12:47:45.201Z,7.58
2017-12-24T12:50:15.165Z,7.61
2017-12-24T12:52:49.828Z,7.65
2017-12-24T12:55:19.765Z,7.68
2017-12-24T12:57:49.025Z,7.69
2017-12-24T13:00:19.728Z,7.48
2017-12-24T13:02:49.629Z,7.50
2017-12-24T13:05:21.016Z,7.44
2017-12-24T13:07:52.762Z,7.59
2017-12-24T13:10:23.321Z,7.74
2017-12-24T13:12:53.342Z,7.78
2017-12-24T13:15:22.376Z,8.00
2017-12-24T13:18:00.079Z,8.01
2017-12-24T13:20:32.127Z,8.10
2017-12-24T13:23:02.964Z,8.07
2017-12-24T13:25:32.816Z,8.02
2017-12-24T13:28:02.591Z,8.14
2017-12-24T13:30:32.597Z,7.92
2017-12-24T13:33:01.698Z,8.13
2017-12-24T13:35:33.239Z,8.00
2017-12-24T13:38:03.856Z,7.97
2017-12-24T13:40:34.380Z,7.94
2017-12-24T13:43:06.171Z,7.92
2017-12-24T13:45:36.235Z,7.90
2017-12-24T13:48:06.075Z,7.92
2017-12-24T13:50:40.003Z,8.04
2017-12-24T13:53:12.447Z,8.02
2017-12-24T13:55:42.486Z,7.95
2017-12-24T13:58:12.931Z,7.78
2017-12-24T14:00:45.270Z,7.91
2017-12-24T14:03:22.585Z,7.97
2017-12-24T14:05:52.524Z,7.79
2017-12-24T14:08:25.905Z,7.50
2017-12-24T14:10:57.991Z,7.46
2017-12-24T14:13:28.020Z,7.36
2017-12-24T14:16:00.249Z,7.45
2017-12-24T14:18:29.318Z,7.54
2017-12-24T14:20:58.356Z,7.37
2017-12-24T14:23:26.736Z,7.26
2017-12-24T14:25:55.876Z,7.12
2017-12-24T14:28:26.651Z,7.09
2017-12-24T14:30:58.087Z,7.06
2017-12-24T14:33:27.995Z,7.08
2017-12-24T14:35:58.082Z,7.00
2017-12-24T14:38:29.636Z,7.03
2017-12-24T14:41:00.085Z,7.01
2017-12-24T14:43:31.076Z,7.00
2017-12-24T14:46:03.464Z,7.05
2017-12-24T14:48:33.393Z,6.93
2017-12-24T14:51:03.365Z,6.84
2017-12-24T14:53:32.328Z,6.81
2017-12-24T14:56:02.260Z,6.84
2017-12-24T14:58:32.047Z,6.78
2017-12-24T15:01:02.044Z,6.59
2017-12-24T15:03:34.325Z,6.61
2017-12-24T15:06:06.867Z,6.58
2017-12-24T15:08:38.278Z,6.62
2017-12-24T15:11:10.838Z,6.57
2017-12-24T15:13:41.553Z,6.58
2017-12-24T15:16:12.420Z,6.53
2017-12-24T15:18:42.993Z,6.40
2017-12-24T15:21:11.998Z,6.48
2017-12-24T15:23:41.041Z,6.49
2017-12-24T15:26:09.616Z,6.43
2017-12-24T15:28:38.068Z,6.43
2017-12-24T15:31:06.654Z,6.40
2017-12-24T15:33:36.945Z,6.38
2017-12-24T15:36:11.606Z,6.29
2017-12-24T15:38:42.320Z,6.33
2017-12-24T15:41:12.190Z,6.31
2017-12-24T15:43:44.616Z,6.31
2017-12-24T15:46:13.591Z,6.24
2017-12-24T15:48:42.692Z,6.27
2017-12-24T15:51:11.713Z,6.30
2017-12-24T15:53:40.128Z,6.21
2017-12-24T15:56:09.022Z,6.22
2017-12-24T15:58:37.379Z,6.13
2017-12-24T16:01:06.661Z,6.16
2017-12-24T16:03:35.488Z,6.19
2017-12-24T16:06:04.608Z,6.21
2017-12-24T16:08:33.780Z,6.31
2017-12-24T16:11:02.985Z,6.18
2017-12-24T16:13:32.409Z,6.28
2017-12-24T16:16:02.053Z,6.26
2017-12-24T16:18:36.820Z,6.24
2017-12-24T16:21:05.784Z,6.01
2017-12-24T16:23:35.011Z,6.13
2017-12-24T16:26:03.989Z,6.11
2017-12-24T16:28:33.266Z,6.13
2017-12-24T16:31:04.592Z,6.12
2017-12-24T16:33:33.915Z,6.16
2017-12-24T16:36:04.588Z,6.16
2017-12-24T16:38:33.695Z,6.13
2017-12-24T16:41:02.620Z,6.11
2017-12-24T16:43:31.759Z,6.08
2017-12-24T16:46:01.512Z,6.03
2017-12-24T16:48:31.765Z,6.08
2017-12-24T16:51:02.317Z,6.10
2017-12-24T16:53:31.368Z,6.06
2017-12-24T16:56:00.492Z,5.99
2017-12-24T16:58:28.904Z,5.88
2017-12-24T17:00:57.716Z,5.89
2017-12-24T17:03:27.077Z,5.93
2017-12-24T17:05:55.643Z,5.98
2017-12-24T17:08:24.336Z,6.00
2017-12-24T17:10:52.780Z,6.01
2017-12-24T17:13:21.839Z,5.93
2017-12-24T17:15:50.772Z,5.99
2017-12-24T17:18:19.145Z,5.98
2017-12-24T17:20:47.749Z,5.93
2017-12-24T17:23:16.450Z,5.92
2017-12-24T17:25:44.919Z,5.92
2017-12-24T17:28:13.596Z,5.84
2017-12-24T17:30:42.087Z,5.83
2017-12-24T17:33:11.124Z,5.83
2017-12-24T17:35:39.620Z,5.71
2017-12-24T17:38:07.931Z,5.71
2017-12-24T17:40:36.316Z,5.69
2017-12-24T17:43:04.636Z,5.68
2017-12-24T17:45:33.414Z,5.76
2017-12-24T17:48:01.853Z,5.77
2017-12-24T17:50:30.811Z,5.80
2017-12-24T17:52:59.511Z,5.81
2017-12-24T17:55:29.973Z,5.82
2017-12-24T17:57:58.771Z,5.85
2017-12-24T18:00:27.146Z,5.86
2017-12-24T18:02:56.316Z,5.75
2017-12-24T18:05:25.312Z,5.75
2017-12-24T18:07:53.692Z,5.67
2017-12-24T18:10:22.040Z,5.61
2017-12-24T18:12:50.432Z,5.64
2017-12-24T18:15:19.409Z,5.59
2017-12-24T18:17:48.514Z,5.66
2017-12-24T18:20:16.872Z,5.67
2017-12-24T18:22:45.933Z,5.69
2017-12-24T18:25:15.852Z,5.63
2017-12-24T18:27:44.712Z,5.49
2017-12-24T18:30:13.999Z,5.54
2017-12-24T18:32:42.969Z,5.54
2017-12-24T18:35:11.277Z,5.58
2017-12-24T18:37:40.263Z,5.58
2017-12-24T18:40:08.724Z,5.54
2017-12-24T18:42:37.704Z,5.51
2017-12-24T18:45:06.187Z,5.51
2017-12-24T18:47:35.545Z,5.65
2017-12-24T18:50:04.168Z,5.43
2017-12-24T18:52:32.530Z,5.49
2017-12-24T18:55:01.604Z,5.50
2017-12-24T18:57:30.690Z,5.66
2017-12-24T18:59:59.695Z,5.70
2017-12-24T19:02:28.060Z,5.71
2017-12-24T19:04:57.225Z,5.64
2017-12-24T19:07:26.216Z,5.45
2017-12-24T19:09:55.327Z,5.41
2017-12-24T19:12:23.961Z,5.32
2017-12-24T19:14:55.006Z,5.36
2017-12-24T19:17:23.832Z,5.30
2017-12-24T19:19:52.388Z,5.26
2017-12-24T19:22:21.723Z,5.24
2017-12-24T19:24:50.288Z,5.26
2017-12-24T19:27:18.596Z,5.27
2017-12-24T19:29:48.114Z,5.41
2017-12-24T19:32:17.344Z,5.44
2017-12-24T19:34:45.664Z,5.37
2017-12-24T19:37:14.566Z,5.23
2017-12-24T19:39:43.628Z,5.16
2017-12-24T19:42:14.324Z,5.21
2017-12-24T19:44:42.822Z,5.11
2017-12-24T19:47:12.501Z,5.10
2017-12-24T19:49:40.862Z,5.22
2017-12-24T19:52:09.693Z,5.30
2017-12-24T19:54:38.286Z,5.30
2017-12-24T19:57:06.781Z,5.38
2017-12-24T19:59:35.579Z,5.25
2017-12-24T20:02:04.403Z,5.15
2017-12-24T20:04:32.783Z,5.11
2017-12-24T20:07:02.095Z,5.15
2017-12-24T20:09:31.189Z,5.20
2017-12-24T20:12:01.099Z,5.22
2017-12-24T20:14:30.153Z,5.22
2017-12-24T20:16:58.553Z,5.13
2017-12-24T20:19:27.719Z,5.22
2017-12-24T20:21:56.800Z,5.12
2017-12-24T20:24:26.931Z,5.11
2017-12-24T20:26:56.615Z,4.95
2017-12-24T20:29:25.488Z,4.85
2017-12-24T20:31:53.850Z,4.93
2017-12-24T20:34:22.977Z,5.04
2017-12-24T20:36:52.588Z,4.67
2017-12-24T20:39:21.131Z,4.55
2017-12-24T20:41:50.932Z,4.63
2017-12-24T20:44:19.285Z,4.56
2017-12-24T20:46:47.708Z,4.56
2017-12-24T20:49:16.296Z,4.55
2017-12-24T20:51:44.943Z,4.61
2017-12-24T20:54:13.299Z,4.56
2017-12-24T20:56:42.457Z,4.56
2017-12-24T20:59:10.899Z,4.58
2017-12-24T21:01:40.991Z,4.57
2017-12-24T21:04:09.776Z,4.64
2017-12-24T21:06:38.193Z,4.74
2017-12-24T21:09:06.993Z,4.77
2017-12-24T21:11:36.126Z,4.74
2017-12-24T21:14:05.166Z,4.65
2017-12-24T21:16:33.519Z,4.57
2017-12-24T21:19:02.753Z,4.58
2017-12-24T21:21:31.688Z,4.66
2017-12-24T21:24:00.811Z,4.58
2017-12-24T21:26:30.022Z,4.77
2017-12-24T21:28:59.055Z,4.86
2017-12-24T21:31:28.027Z,4.90
2017-12-24T21:33:57.302Z,4.75
2017-12-24T21:36:26.165Z,4.83
2017-12-24T21:38:54.608Z,4.78
2017-12-24T21:41:23.765Z,4.77
2017-12-24T21:43:52.220Z,4.74
2017-12-24T21:46:21.755Z,4.81
2017-12-24T21:48:50.899Z,4.95
2017-12-24T21:51:19.246Z,4.99
2017-12-24T21:53:48.256Z,4.80
2017-12-24T21:56:17.443Z,4.78
2017-12-24T21:58:46.486Z,4.84
2017-12-24T22:01:15.550Z,4.88
2017-12-24T22:03:44.124Z,4.81
2017-12-24T22:06:12.898Z,4.51
2017-12-24T22:08:41.994Z,4.66
2017-12-24T22:11:10.400Z,4.69
2017-12-24T22:13:40.209Z,4.65
2017-12-24T22:16:08.900Z,4.50
2017-12-24T22:18:38.025Z,4.52
2017-12-24T22:21:07.474Z,4.43
2017-12-24T22:23:36.545Z,4.42
2017-12-24T22:26:05.117Z,4.40
2017-12-24T22:28:33.992Z,4.40
2017-12-24T22:31:03.033Z,4.43
2017-12-24T22:33:32.047Z,4.46
2017-12-24T22:36:01.389Z,4.31
2017-12-24T22:38:29.831Z,4.34
2017-12-24T22:40:59.583Z,4.52
2017-12-24T22:43:28.545Z,4.54
2017-12-24T22:45:57.668Z,4.50
2017-12-24T22:48:26.711Z,4.58
2017-12-24T22:50:55.760Z,4.53
2017-12-24T22:53:24.249Z,4.38
2017-12-24T22:55:52.556Z,4.37
2017-12-24T22:58:21.693Z,4.35
2017-12-24T23:00:50.522Z,4.43
2017-12-24T23:03:19.632Z,4.34
2017-12-24T23:05:48.080Z,4.35
2017-12-24T23:08:17.234Z,4.35
2017-12-24T23:10:46.143Z,4.35
2017-12-24T23:13:14.760Z,4.28
2017-12-24T23:15:43.813Z,4.26
2017-12-24T23:18:12.790Z,4.28
2017-12-24T23:20:41.586Z,4.38
2017-12-24T23:23:10.206Z,4.47
2017-12-24T23:25:39.410Z,4.45
2017-12-24T23:28:08.514Z,4.60
2017-12-24T23:30:38.422Z,4.56
2017-12-24T23:33:07.022Z,4.63
2017-12-24T23:35:35.624Z,4.59
2017-12-24T23:38:04.078Z,4.52
2017-12-24T23:40:32.435Z,4.48
2017-12-24T23:43:01.288Z,4.48
2017-12-24T23:45:29.712Z,4.26
2017-12-24T23:47:58.202Z,4.31
2017-12-24T23:50:26.928Z,4.30
2017-12-24T23:52:56.112Z,4.36
2017-12-24T23:55:24.845Z,4.32
2017-12-24T23:57:53.373Z,4.29
